Time;durP1;ratioP1;P1;durP2;ratioP2;P2;SDS_P1;SDS_P2;PMS_P1;PMS_P2;Temp;Humidity;BMP_temperature;BMP_pressure;BME280_temperature;BME280_humidity;BME280_pressure;Samples;Min_cycle;Max_cycle;Signal;HPM_P1;HPM_P2
2021/09/29 00:01:47;;;;;;;5.50;0.80;;;;;;;13.92;86.94;100608.03;6197877;23;20004;-78
2021/09/29 00:04:12;;;;;;;5.65;0.90;;;;;;;13.94;86.40;100605.75;6222537;23;20004;-78
2021/09/29 00:06:38;;;;;;;8.60;0.80;;;;;;;13.96;86.53;100611.06;6248276;23;20016;-78
2021/09/29 00:09:03;;;;;;;4.38;1.02;;;;;;;13.94;86.57;100614.16;6249504;23;20368;-77
2021/09/29 00:11:29;;;;;;;6.72;0.90;;;;;;;13.97;87.08;100609.91;6249598;23;20008;-77
2021/09/29 00:13:54;;;;;;;5.18;0.80;;;;;;;13.94;85.70;100602.97;6222487;23;20075;-78
2021/09/29 00:16:20;;;;;;;5.78;1.05;;;;;;;13.97;86.15;100613.50;6222573;23;20007;-77
2021/09/29 00:18:45;;;;;;;6.55;0.82;;;;;;;13.98;85.59;100606.78;6197434;23;20011;-77
2021/09/29 00:21:11;;;;;;;6.30;0.80;;;;;;;13.97;86.54;100613.50;6197765;23;20012;-77
2021/09/29 00:23:36;;;;;;;6.75;1.00;;;;;;;13.98;86.45;100617.94;6197753;23;20046;-77
2021/09/29 00:26:02;;;;;;;4.35;0.70;;;;;;;13.99;86.86;100621.59;6172548;23;20016;-78
2021/09/29 00:28:27;;;;;;;5.68;0.98;;;;;;;13.97;85.63;100621.88;6249022;23;20008;-77
2021/09/29 00:31:04;;;;;;;6.97;0.80;;;;;;;13.98;86.31;100631.91;6249327;23;20008;-77
2021/09/29 00:33:30;;;;;;;7.13;0.95;;;;;;;13.98;86.85;100625.50;6249192;23;20051;-78
2021/09/29 00:35:56;;;;;;;5.70;0.70;;;;;;;13.98;85.77;100628.28;6197753;23;20004;-78
2021/09/29 00:38:21;;;;;;;7.80;1.20;;;;;;;13.97;86.35;100630.25;6197262;23;20004;-77
2021/09/29 00:40:48;;;;;;;5.95;0.70;;;;;;;13.95;85.84;100626.94;6197272;23;20008;-78
2021/09/29 00:43:14;;;;;;;7.30;0.82;;;;;;;13.94;85.79;100630.91;6197866;23;20082;-78
2021/09/29 00:45:40;;;;;;;6.30;0.90;;;;;;;13.97;85.84;100632.25;6197568;23;20008;-77
2021/09/29 00:48:05;;;;;;;6.63;0.90;;;;;;;13.97;86.10;100635.84;6249079;23;20015;-77
2021/09/29 00:50:30;;;;;;;4.63;1.05;;;;;;;13.96;85.28;100642.59;6222303;22;20009;-78
2021/09/29 00:52:56;;;;;;;6.97;0.77;;;;;;;13.98;86.06;100650.63;6249000;23;20016;-77
2021/09/29 00:55:22;;;;;;;5.95;0.73;;;;;;;13.97;86.41;100641.44;6197673;23;20000;-77
2021/09/29 00:57:47;;;;;;;8.82;0.90;;;;;;;13.99;86.07;100635.56;6197319;23;20012;-77
2021/09/29 01:00:13;;;;;;;5.90;0.95;;;;;;;13.98;86.25;100637.50;6249099;23;20008;-77
2021/09/29 01:02:39;;;;;;;5.60;0.70;;;;;;;13.97;85.41;100644.22;6222343;23;20011;-77
2021/09/29 01:05:05;;;;;;;3.75;0.73;;;;;;;13.93;85.13;100640.41;6222206;23;20016;-78
2021/09/29 01:07:48;;;;;;;5.70;0.93;;;;;;;13.91;85.01;100642.69;6222536;23;20004;-77
2021/09/29 01:10:18;;;;;;;5.60;0.90;;;;;;;13.85;84.95;100641.16;6249346;23;20004;-77
2021/09/29 01:12:52;;;;;;;6.32;0.75;;;;;;;13.80;84.79;100641.28;6222952;23;20004;-77
2021/09/29 01:15:27;;;;;;;5.78;1.02;;;;;;;13.80;85.66;100639.28;6148990;23;20043;-78
2021/09/29 01:17:54;;;;;;;5.45;0.80;;;;;;;13.73;84.67;100643.66;6197732;23;20093;-78
2021/09/29 01:20:50;;;;;;;3.60;0.43;;;;;;;13.69;85.11;100642.63;6222348;23;20493;-77
2021/09/29 01:23:25;;;;;;;6.78;0.70;;;;;;;13.69;85.17;100648.22;6210990;23;20015;-77
2021/09/29 01:25:53;;;;;;;5.35;0.98;;;;;;;13.67;85.04;100650.47;6249117;23;20008;-78
2021/09/29 01:28:20;;;;;;;3.40;0.45;;;;;;;13.61;85.11;100655.34;6248610;23;20008;-77
2021/09/29 01:30:46;;;;;;;5.03;0.70;;;;;;;13.60;85.02;100654.53;6248955;23;20425;-78
2021/09/29 01:33:11;;;;;;;2.17;0.57;;;;;;;13.56;85.38;100659.06;6215520;23;20031;-77
2021/09/29 01:35:37;;;;;;;4.78;0.65;;;;;;;13.55;85.21;100668.56;6222018;23;20016;-77
2021/09/29 01:38:02;;;;;;;5.47;0.63;;;;;;;13.55;85.18;100663.00;6247693;23;20015;-78
2021/09/29 01:40:28;;;;;;;4.45;0.80;;;;;;;13.50;85.37;100665.88;6221817;23;20009;-77
2021/09/29 01:42:53;;;;;;;5.65;0.93;;;;;;;13.46;85.74;100655.66;6247209;23;20004;-77
2021/09/29 01:45:19;;;;;;;3.53;0.77;;;;;;;13.46;86.06;100670.44;6247214;23;20008;-78
2021/09/29 01:47:47;;;;;;;6.05;0.70;;;;;;;13.45;86.32;100657.59;6222163;23;20073;-77
2021/09/29 01:50:12;;;;;;;3.90;0.85;;;;;;;13.42;85.60;100663.81;6222426;23;20035;-77
2021/09/29 01:52:40;;;;;;;5.00;0.70;;;;;;;13.41;85.99;100662.16;6247789;23;20435;-78
2021/09/29 01:55:06;;;;;;;6.43;1.00;;;;;;;13.40;87.16;100685.63;6224216;23;20381;-78
2021/09/29 01:57:31;;;;;;;5.78;0.90;;;;;;;13.35;87.65;100694.91;6223632;23;20038;-78
2021/09/29 01:59:57;;;;;;;3.45;0.77;;;;;;;13.36;88.08;100698.53;6224575;23;20008;-78
2021/09/29 02:02:22;;;;;;;3.72;0.65;;;;;;;13.36;88.19;100692.94;6223981;23;20056;-78
2021/09/29 02:04:49;;;;;;;6.00;0.70;;;;;;;13.37;88.30;100711.31;6223984;23;20337;-78
2021/09/29 02:07:15;;;;;;;6.60;0.85;;;;;;;13.34;87.92;100695.22;6223874;23;20031;-78
2021/09/29 02:09:41;;;;;;;3.85;0.70;;;;;;;13.35;87.84;100700.50;6224176;23;20008;-77
2021/09/29 02:12:07;;;;;;;5.82;0.68;;;;;;;13.33;88.09;100710.31;6198632;23;20050;-77
2021/09/29 02:14:32;;;;;;;6.07;1.02;;;;;;;13.34;88.30;100709.16;6198733;23;20027;-78
2021/09/29 02:16:58;;;;;;;4.03;0.60;;;;;;;13.34;87.62;100706.38;6223749;23;20004;-78
2021/09/29 02:19:24;;;;;;;4.35;0.65;;;;;;;13.36;88.83;100709.69;6223856;23;20011;-78
2021/09/29 02:21:49;;;;;;;2.70;0.77;;;;;;;13.34;88.27;100712.78;6224041;23;20012;-78
2021/09/29 02:24:15;;;;;;;4.10;0.70;;;;;;;13.32;88.61;100717.03;6223658;23;20015;-78
2021/09/29 02:26:40;;;;;;;6.30;0.75;;;;;;;13.32;88.68;100715.06;6198118;23;20012;-78
2021/09/29 02:29:06;;;;;;;5.10;0.55;;;;;;;13.26;90.15;100715.44;6198762;23;20440;-78
2021/09/29 02:31:32;;;;;;;4.22;0.80;;;;;;;13.26;89.25;100718.22;6248734;23;20464;-78
2021/09/29 02:33:58;;;;;;;3.28;0.82;;;;;;;13.22;89.01;100715.22;6198867;23;20337;-78
2021/09/29 02:36:23;;;;;;;4.45;0.77;;;;;;;13.21;88.64;100724.72;6173514;23;20003;-78
2021/09/29 02:38:51;;;;;;;5.85;0.75;;;;;;;13.17;88.76;100729.25;6250298;23;20019;-78
2021/09/29 02:41:17;;;;;;;5.38;0.82;;;;;;;13.18;88.51;100731.72;6199305;23;20008;-78
2021/09/29 02:43:42;;;;;;;5.20;1.05;;;;;;;13.18;88.30;100734.53;6223633;23;20066;-78
2021/09/29 02:46:08;;;;;;;3.53;0.50;;;;;;;13.11;88.61;100745.22;6198218;23;20499;-78
2021/09/29 02:48:33;;;;;;;2.90;0.50;;;;;;;13.09;88.47;100738.31;6148901;23;20012;-77
2021/09/29 02:50:59;;;;;;;4.13;0.73;;;;;;;13.01;88.97;100756.56;6173589;23;20012;-77
2021/09/29 02:53:28;;;;;;;5.30;0.70;;;;;;;12.92;89.91;100750.03;6198192;23;20576;-77
2021/09/29 02:55:58;;;;;;;4.43;0.68;;;;;;;12.89;89.21;100759.00;6250370;23;20004;-77
2021/09/29 02:58:24;;;;;;;2.38;0.30;;;;;;;12.89;88.94;100768.19;6199005;23;20074;-77
2021/09/29 03:00:51;;;;;;;3.45;0.43;;;;;;;12.88;89.17;100762.94;6223088;23;20098;-77
2021/09/29 03:03:16;;;;;;;1.88;0.57;;;;;;;12.87;88.85;100777.97;6223244;23;20429;-77
2021/09/29 03:05:42;;;;;;;2.95;0.40;;;;;;;12.86;88.66;100767.97;6222693;23;20008;-77
2021/09/29 03:08:07;;;;;;;2.97;0.47;;;;;;;12.84;88.33;100773.00;6223868;23;20015;-77
2021/09/29 03:10:35;;;;;;;1.35;0.40;;;;;;;12.83;88.25;100763.00;6173384;23;20011;-77
2021/09/29 03:13:01;;;;;;;2.10;0.50;;;;;;;12.80;88.30;100769.19;6248137;23;20005;-77
2021/09/29 03:15:26;;;;;;;1.85;0.50;;;;;;;12.78;88.49;100774.22;6173143;23;20004;-78
2021/09/29 03:17:51;;;;;;;1.17;0.47;;;;;;;12.76;87.91;100774.53;6198418;23;20452;-77
2021/09/29 03:20:17;;;;;;;2.45;0.50;;;;;;;12.70;88.28;100771.00;6223234;23;20015;-77
2021/09/29 03:22:43;;;;;;;2.10;0.40;;;;;;;12.75;87.85;100773.69;6197874;23;20091;-77
2021/09/29 03:25:08;;;;;;;2.42;0.40;;;;;;;12.70;88.06;100773.78;6198016;23;20448;-77
2021/09/29 03:27:34;;;;;;;1.60;0.40;;;;;;;12.70;88.05;100787.72;6197617;23;20016;-77
2021/09/29 03:29:59;;;;;;;3.17;0.40;;;;;;;12.73;87.52;100789.91;6173394;23;20019;-77
2021/09/29 03:32:25;;;;;;;2.25;0.47;;;;;;;12.68;87.85;100794.72;6197804;23;20031;-77
2021/09/29 03:34:50;;;;;;;3.45;0.40;;;;;;;12.65;87.86;100798.94;6197960;23;20004;-77
2021/09/29 03:37:16;;;;;;;2.80;0.35;;;;;;;12.64;87.48;100797.25;6197742;23;20008;-80
2021/09/29 03:39:41;;;;;;;1.48;0.20;;;;;;;12.58;87.58;100803.22;6197994;23;20004;-79
2021/09/29 03:42:07;;;;;;;2.72;0.40;;;;;;;12.53;87.53;100812.47;6222791;23;20008;-79
2021/09/29 03:44:32;;;;;;;2.30;0.30;;;;;;;12.50;87.20;100810.28;6249616;23;20004;-79
2021/09/29 03:46:58;;;;;;;3.70;0.40;;;;;;;12.48;87.17;100806.97;6172879;23;20011;-79
2021/09/29 03:49:24;;;;;;;0.95;0.45;;;;;;;12.43;87.08;100809.84;6197874;23;20012;-79
2021/09/29 03:51:49;;;;;;;1.23;0.30;;;;;;;12.38;87.08;100818.25;6223337;23;20333;-80
2021/09/29 03:54:15;;;;;;;2.33;0.30;;;;;;;12.33;87.35;100821.09;6197958;23;20016;-79
2021/09/29 03:56:40;;;;;;;0.38;0.38;;;;;;;12.26;87.14;100822.31;6222368;23;20383;-80
2021/09/29 03:59:06;;;;;;;2.88;0.47;;;;;;;12.21;87.11;100822.38;6249605;23;20008;-79
2021/09/29 04:01:31;;;;;;;2.33;0.35;;;;;;;12.17;87.39;100829.63;6197877;23;20506;-80
2021/09/29 04:03:56;;;;;;;3.20;0.40;;;;;;;12.12;87.42;100829.72;6197727;23;20609;-79
2021/09/29 04:06:22;;;;;;;1.58;0.20;;;;;;;12.08;87.32;100831.44;6197706;23;20015;-79
2021/09/29 04:08:47;;;;;;;1.85;0.30;;;;;;;12.04;87.28;100833.16;6222569;23;20070;-79
2021/09/29 04:11:13;;;;;;;0.50;0.20;;;;;;;11.98;87.18;100837.97;6197637;23;20008;-79
2021/09/29 04:13:39;;;;;;;1.08;0.32;;;;;;;11.93;87.48;100851.09;6197505;23;20444;-80
2021/09/29 04:16:05;;;;;;;0.68;0.20;;;;;;;11.90;87.00;100858.09;6197856;23;20012;-79
2021/09/29 04:18:30;;;;;;;3.45;0.50;;;;;;;11.89;86.88;100855.59;6222524;23;20008;-79
2021/09/29 04:20:56;;;;;;;2.05;0.40;;;;;;;11.82;87.15;100867.88;6197457;23;20008;-80
2021/09/29 04:23:21;;;;;;;1.45;0.40;;;;;;;11.81;87.12;100870.94;6197523;23;20008;-79
2021/09/29 04:25:51;;;;;;;0.38;0.20;;;;;;;11.75;87.10;100872.09;6197520;23;20008;-79
2021/09/29 04:28:17;;;;;;;1.15;0.20;;;;;;;11.70;86.94;100878.56;6199220;23;20444;-79
2021/09/29 04:30:42;;;;;;;1.70;0.40;;;;;;;11.63;87.16;100889.19;6222695;23;20003;-79
2021/09/29 04:33:08;;;;;;;1.60;0.25;;;;;;;11.59;87.00;100886.19;6197113;23;20024;-79
2021/09/29 04:35:33;;;;;;;0.80;0.30;;;;;;;11.55;87.13;100892.59;6222633;23;20008;-79
2021/09/29 04:37:59;;;;;;;1.33;0.20;;;;;;;11.51;87.15;100903.50;6197687;23;20019;-79
2021/09/29 04:40:24;;;;;;;1.20;0.20;;;;;;;11.47;86.87;100901.56;6221937;23;20211;-79
2021/09/29 04:42:50;;;;;;;1.00;0.22;;;;;;;11.43;86.96;100906.91;6197138;23;20010;-79
2021/09/29 04:45:15;;;;;;;1.00;0.30;;;;;;;11.36;87.02;100904.41;6222062;23;20004;-79
2021/09/29 04:47:41;;;;;;;1.23;0.30;;;;;;;11.31;87.02;100910.03;6222528;23;20015;-79
2021/09/29 04:50:07;;;;;;;1.70;0.55;;;;;;;11.24;87.07;100909.53;6222505;23;20346;-79
2021/09/29 04:52:32;;;;;;;1.02;0.30;;;;;;;11.22;87.04;100908.16;6197335;23;20028;-79
2021/09/29 04:54:58;;;;;;;3.15;0.35;;;;;;;11.19;86.87;100917.91;6248928;23;20015;-78
2021/09/29 04:57:23;;;;;;;3.10;0.38;;;;;;;11.12;86.93;100918.22;6248923;23;20034;-79
2021/09/29 04:59:49;;;;;;;3.30;0.40;;;;;;;11.09;87.15;100920.75;6222798;23;20011;-78
2021/09/29 05:02:14;;;;;;;2.55;0.30;;;;;;;11.10;86.77;100926.03;6172347;23;20004;-78
2021/09/29 05:04:40;;;;;;;1.13;0.30;;;;;;;11.05;86.92;100925.22;6249059;23;20011;-79
2021/09/29 05:07:05;;;;;;;2.67;0.35;;;;;;;10.99;86.97;100929.16;6147770;23;20062;-78
2021/09/29 05:09:32;;;;;;;1.05;0.22;;;;;;;10.94;87.26;100930.81;6222396;23;20061;-79
2021/09/29 05:12:30;;;;;;;1.67;0.30;;;;;;;10.87;87.28;100935.88;6221971;23;20012;-77
2021/09/29 05:14:56;;;;;;;1.55;0.50;;;;;;;10.85;86.99;100953.97;6221606;23;20022;-78
2021/09/29 05:17:21;;;;;;;0.60;0.20;;;;;;;10.80;87.36;100960.34;6222338;23;20068;-79
2021/09/29 05:19:47;;;;;;;2.22;0.32;;;;;;;10.75;87.61;100960.38;6197243;23;20012;-78
2021/09/29 05:22:12;;;;;;;4.38;1.05;;;;;;;10.74;87.45;100964.28;6249052;23;20015;-79
2021/09/29 05:24:38;;;;;;;2.00;0.40;;;;;;;10.73;87.16;100973.75;6197248;23;20067;-79
2021/09/29 05:27:04;;;;;;;1.48;0.57;;;;;;;10.67;87.29;100974.84;6222157;23;20205;-78
2021/09/29 05:29:30;;;;;;;2.10;0.30;;;;;;;10.64;87.56;100981.84;6198754;23;20012;-78
2021/09/29 05:31:55;;;;;;;1.45;0.30;;;;;;;10.60;87.08;100983.50;6198891;23;20093;-78
2021/09/29 05:34:24;;;;;;;0.88;0.30;;;;;;;10.57;87.32;100988.78;6199345;23;20039;-78
2021/09/29 05:36:50;;;;;;;0.80;0.20;;;;;;;10.56;87.20;100996.31;6199829;23;20429;-78
2021/09/29 05:39:15;;;;;;;1.13;0.22;;;;;;;10.49;87.39;100993.81;6223321;23;20042;-78
2021/09/29 05:41:41;;;;;;;5.40;0.50;;;;;;;10.48;87.35;100997.69;6198743;23;20008;-78
2021/09/29 05:44:06;;;;;;;1.15;0.20;;;;;;;10.45;87.24;101005.78;6174109;23;20077;-78
2021/09/29 05:46:32;;;;;;;1.23;0.30;;;;;;;10.37;87.45;101014.66;6199264;23;20008;-78
2021/09/29 05:48:58;;;;;;;0.77;0.20;;;;;;;10.36;87.28;101010.22;6250914;23;20015;-78
2021/09/29 05:51:23;;;;;;;1.75;0.30;;;;;;;10.35;87.39;101020.50;6198832;23;20008;-78
2021/09/29 05:53:49;;;;;;;1.00;0.20;;;;;;;10.33;87.39;101022.72;6223801;23;20008;-78
2021/09/29 05:56:16;;;;;;;2.22;0.28;;;;;;;10.28;87.05;101033.84;6223967;23;20014;-79
2021/09/29 05:58:42;;;;;;;1.73;0.25;;;;;;;10.26;87.49;101036.03;6224287;23;20333;-79
2021/09/29 06:01:08;;;;;;;1.58;0.30;;;;;;;10.25;87.26;101039.91;6198820;23;20004;-79
2021/09/29 06:03:33;;;;;;;1.58;0.30;;;;;;;10.17;87.49;101038.53;6173977;23;20095;-79
2021/09/29 06:05:59;;;;;;;1.15;0.30;;;;;;;10.17;87.36;101059.88;6173822;23;20008;-80
2021/09/29 06:08:25;;;;;;;3.03;0.40;;;;;;;10.13;87.51;101070.72;6250833;23;20004;-79
2021/09/29 06:10:50;;;;;;;2.47;0.40;;;;;;;10.12;87.37;101079.34;6198784;23;20008;-79
2021/09/29 06:13:16;;;;;;;0.75;0.30;;;;;;;10.12;87.70;101079.34;6198495;23;20008;-79
2021/09/29 06:15:45;;;;;;;3.58;0.40;;;;;;;10.10;87.62;101082.38;6173823;23;20306;-79
2021/09/29 06:18:14;;;;;;;4.22;0.60;;;;;;;10.10;87.67;101087.09;6250548;23;20011;-79
2021/09/29 06:20:50;;;;;;;2.28;0.40;;;;;;;10.07;87.54;101089.31;6199424;23;20087;-78
2021/09/29 06:23:16;;;;;;;0.88;0.40;;;;;;;10.05;87.71;101088.75;6223799;23;20065;-78
2021/09/29 06:25:42;;;;;;;1.13;0.30;;;;;;;10.06;87.82;101093.22;6173452;23;20000;-79
2021/09/29 06:28:08;;;;;;;2.05;0.32;;;;;;;10.10;87.94;101092.66;6223222;23;20015;-79
2021/09/29 06:30:33;;;;;;;1.27;0.50;;;;;;;10.17;88.11;101096.81;6223710;23;20377;-78
2021/09/29 06:32:59;;;;;;;2.00;0.30;;;;;;;10.24;89.16;101105.69;6239673;23;20016;-78
2021/09/29 06:35:25;;;;;;;1.83;0.25;;;;;;;10.32;89.41;101109.06;6249914;23;20004;-80
2021/09/29 06:37:50;;;;;;;4.47;0.40;;;;;;;10.37;89.35;101106.28;6250439;22;20000;-78
2021/09/29 06:40:17;;;;;;;1.75;0.30;;;;;;;10.42;89.04;101118.22;6250068;22;20012;-78
2021/09/29 06:42:43;;;;;;;0.63;0.30;;;;;;;10.45;89.47;101114.06;6223748;23;20426;-78
2021/09/29 06:45:09;;;;;;;3.05;0.40;;;;;;;10.51;89.87;101121.28;6223632;23;20086;-78
2021/09/29 06:47:35;;;;;;;3.22;0.50;;;;;;;10.56;89.91;101123.19;6223319;23;20012;-77
2021/09/29 06:50:01;;;;;;;1.08;0.40;;;;;;;10.63;89.79;101120.97;6248657;23;20008;-79
2021/09/29 06:52:26;;;;;;;3.05;0.60;;;;;;;10.70;89.80;101127.09;6250141;23;20012;-73
2021/09/29 06:54:52;;;;;;;3.95;0.40;;;;;;;10.76;89.51;101134.31;6247559;23;20012;-73
2021/09/29 06:57:17;;;;;;;1.60;0.40;;;;;;;10.83;89.43;101134.00;6249544;23;20054;-73
2021/09/29 06:59:43;;;;;;;1.77;0.40;;;;;;;10.92;88.93;101144.28;6251576;22;20011;-73
2021/09/29 07:02:08;;;;;;;3.97;0.45;;;;;;;11.01;88.61;101149.28;6251411;22;20008;-73
2021/09/29 07:04:34;;;;;;;3.83;0.50;;;;;;;11.08;88.69;101153.41;6251850;23;20067;-73
2021/09/29 07:07:00;;;;;;;1.73;0.40;;;;;;;11.18;88.77;101152.56;6249912;23;20004;-74
2021/09/29 07:09:25;;;;;;;3.60;0.40;;;;;;;11.28;88.64;101149.75;6251326;22;20007;-73
2021/09/29 07:11:51;;;;;;;2.75;0.30;;;;;;;11.38;88.57;101157.22;6251276;23;20008;-73
2021/09/29 07:14:16;;;;;;;1.15;0.25;;;;;;;11.49;88.55;101164.41;6224722;23;20008;-73
2021/09/29 07:16:42;;;;;;;2.22;0.30;;;;;;;11.59;88.42;101156.03;6249779;23;20000;-73
2021/09/29 07:19:07;;;;;;;2.30;0.30;;;;;;;11.71;88.32;101160.41;6224340;23;20008;-73
2021/09/29 07:21:33;;;;;;;2.35;0.50;;;;;;;11.81;88.37;101161.19;6251699;22;20008;-73
2021/09/29 07:23:59;;;;;;;2.35;0.50;;;;;;;11.94;88.53;101170.06;6251202;22;20011;-73
2021/09/29 07:26:25;;;;;;;1.58;0.40;;;;;;;12.06;88.23;101173.31;6250857;22;20032;-73
2021/09/29 07:28:50;;;;;;;2.55;0.40;;;;;;;12.16;87.98;101176.03;6249835;23;20036;-73
2021/09/29 07:31:16;;;;;;;3.25;0.60;;;;;;;12.29;88.66;101180.97;6249807;23;20000;-73
2021/09/29 07:33:42;;;;;;;4.18;0.70;;;;;;;12.42;88.50;101173.06;6249376;23;20012;-73
2021/09/29 07:36:08;;;;;;;1.85;0.30;;;;;;;12.52;88.59;101179.41;6250961;23;20436;-73
2021/09/29 07:38:34;;;;;;;3.05;0.40;;;;;;;12.66;88.33;101184.31;6251727;22;20062;-73
2021/09/29 07:41:00;;;;;;;3.10;0.55;;;;;;;12.77;88.34;101193.41;6251145;22;20035;-74
2021/09/29 07:43:25;;;;;;;2.50;0.60;;;;;;;12.87;88.21;101199.75;6249361;23;20420;-73
2021/09/29 07:45:51;;;;;;;4.85;0.50;;;;;;;12.99;88.27;101207.72;6250844;22;20012;-71
2021/09/29 07:48:16;;;;;;;4.00;0.73;;;;;;;13.09;88.39;101204.84;6249990;23;20016;-71
2021/09/29 07:50:42;;;;;;;3.90;0.65;;;;;;;13.21;88.58;101206.38;6250688;22;20019;-71
2021/09/29 07:53:07;;;;;;;3.20;0.90;;;;;;;13.34;87.56;101216.84;6250818;23;20008;-71
2021/09/29 07:55:33;;;;;;;3.05;0.70;;;;;;;13.44;87.70;101213.97;6249578;23;20012;-71
2021/09/29 07:57:59;;;;;;;3.05;0.90;;;;;;;13.55;87.48;101211.91;6224396;23;20079;-71
2021/09/29 08:00:24;;;;;;;3.53;1.25;;;;;;;13.67;86.96;101217.06;6249457;23;20019;-71
2021/09/29 08:02:52;;;;;;;2.35;1.17;;;;;;;13.78;86.88;101219.41;6250937;22;20080;-71
2021/09/29 08:05:19;;;;;;;4.85;1.55;;;;;;;13.91;86.89;101234.63;6249617;23;20007;-70
2021/09/29 08:07:48;;;;;;;5.53;1.48;;;;;;;14.02;87.29;101236.16;6249753;22;20341;-71
2021/09/29 08:10:14;;;;;;;7.00;1.60;;;;;;;14.16;87.16;101236.25;6249219;23;20000;-71
2021/09/29 08:12:40;;;;;;;4.03;1.50;;;;;;;14.26;86.98;101241.69;6199095;23;20062;-71
2021/09/29 08:15:12;;;;;;;5.30;1.75;;;;;;;14.38;86.05;101246.81;6224330;23;20011;-71
2021/09/29 08:17:38;;;;;;;4.82;1.40;;;;;;;14.51;86.18;101248.00;6249063;23;20020;-71
2021/09/29 08:20:04;;;;;;;4.82;1.58;;;;;;;14.63;86.23;101253.19;6250654;22;20063;-71
2021/09/29 08:22:30;;;;;;;6.32;1.70;;;;;;;14.73;86.36;101256.63;6249797;22;20004;-71
2021/09/29 08:25:15;;;;;;;6.00;1.80;;;;;;;14.82;86.23;101254.00;6249489;23;20018;-76
2021/09/29 08:27:55;;;;;;;5.93;1.50;;;;;;;14.97;85.63;101261.31;6227947;23;20004;-76
2021/09/29 08:43:55;;;;;;;6.90;1.20;;;;;;;15.67;83.28;101271.50;6198689;23;20333;-76
2021/09/29 08:46:30;;;;;;;5.45;1.20;;;;;;;15.73;83.57;101275.06;6227561;23;20008;-75
2021/09/29 08:49:01;;;;;;;6.25;1.35;;;;;;;15.79;82.35;101283.03;6248909;23;20015;-76
2021/09/29 09:18:28;;;;;;;4.63;1.05;;;;;;;16.87;79.12;101318.00;6249304;23;20302;-76
2021/09/29 09:21:03;;;;;;;5.43;1.10;;;;;;;16.94;79.07;101323.19;6222515;23;20058;-76
2021/09/29 09:23:36;;;;;;;9.43;1.00;;;;;;;17.04;78.68;101322.94;6225555;23;20771;-76
2021/09/29 09:26:26;;;;;;;6.30;1.00;;;;;;;17.06;77.49;101319.81;6223608;23;20027;-76
2021/09/29 09:29:03;;;;;;;9.27;1.00;;;;;;;17.07;77.22;101319.47;6201081;23;20044;-75
2021/09/29 09:31:30;;;;;;;5.50;0.75;;;;;;;17.10;75.65;101318.84;6223546;23;20007;-76
2021/09/29 09:33:58;;;;;;;7.60;1.10;;;;;;;17.13;75.77;101329.47;6197743;23;20097;-76
2021/09/29 09:36:32;;;;;;;7.60;1.20;;;;;;;17.18;75.26;101334.09;6198888;23;20010;-76
2021/09/29 09:38:59;;;;;;;8.10;0.98;;;;;;;17.21;74.98;101336.25;6224854;23;20348;-76
2021/09/29 09:41:25;;;;;;;6.50;0.90;;;;;;;17.25;74.00;101333.66;6198271;23;20043;-76
2021/09/29 09:43:59;;;;;;;11.98;1.08;;;;;;;17.27;72.86;101343.41;6249937;23;20008;-75
2021/09/29 09:46:25;;;;;;;6.90;0.85;;;;;;;17.26;71.28;101340.94;6223380;23;20073;-76
2021/09/29 09:49:07;;;;;;;7.70;1.10;;;;;;;17.26;71.34;101341.75;6223889;23;20007;-77
2021/09/29 09:51:34;;;;;;;7.23;1.13;;;;;;;17.11;68.31;101359.81;6199231;23;20008;-77
2021/09/29 09:53:59;;;;;;;8.77;1.15;;;;;;;17.07;68.26;101361.59;6148941;23;20277;-77
2021/09/29 09:56:29;;;;;;;6.60;0.98;;;;;;;17.08;67.45;101368.88;6223205;23;20007;-77
2021/09/29 09:58:56;;;;;;;10.05;1.20;;;;;;;17.01;67.14;101357.25;6200293;23;20058;-75
2021/09/29 10:01:22;;;;;;;4.72;1.02;;;;;;;17.01;66.59;101368.47;6173868;23;20004;-76
2021/09/29 10:03:48;;;;;;;7.75;1.10;;;;;;;16.99;68.31;101362.34;6223331;23;20058;-77
2021/09/29 10:06:14;;;;;;;6.22;1.00;;;;;;;17.04;68.07;101358.59;6149090;23;20022;-77
2021/09/29 10:08:43;;;;;;;4.50;1.10;;;;;;;16.97;67.35;101357.06;6198430;23;20015;-76
2021/09/29 10:11:16;;;;;;;7.25;1.08;;;;;;;16.95;65.17;101358.50;6249417;23;20008;-76
2021/09/29 10:27:24;;;;;;;5.93;1.60;;;;;;;16.77;60.93;101395.94;6224491;23;20008;-76
2021/09/29 10:29:57;;;;;;;8.05;1.33;;;;;;;16.87;61.49;101395.72;6225322;23;20333;-76
2021/09/29 10:32:25;;;;;;;8.68;1.70;;;;;;;16.87;61.56;101395.72;6200055;23;20063;-76
2021/09/29 10:35:33;;;;;;;5.18;1.80;;;;;;;16.95;61.10;101397.78;6225639;23;20063;-77
2021/09/29 10:40:17;;;;;;;7.55;1.45;;;;;;;17.05;61.76;101410.75;6228145;23;20000;-76
2021/09/29 10:43:19;;;;;;;5.35;1.48;;;;;;;17.30;62.38;101423.34;6201192;23;20008;-76
2021/09/29 11:29:39;;;;;;;4.45;0.70;;;;;;;18.13;55.90;101443.44;6208056;23;20074;-76
2021/09/29 11:31:44;;;;;;;7.20;0.70;;;;;;;18.12;56.06;101457.84;6213375;23;20061;-77
2021/09/29 11:34:16;;;;;;;4.30;0.95;;;;;;;18.21;56.72;101461.53;6251131;23;20075;-76
2021/09/29 11:36:59;;;;;;;4.43;0.55;;;;;;;18.17;55.62;101466.97;6177316;23;20086;-76
2021/09/29 12:12:18;;;;;;;6.57;1.15;;;;;;;18.86;55.34;101511.50;6225383;23;20396;-69
2021/09/29 12:14:48;;;;;;;6.82;0.70;;;;;;;18.90;57.17;101504.03;6225264;23;20413;-69
2021/09/29 12:17:38;;;;;;;3.72;0.60;;;;;;;18.93;58.11;101506.19;6251000;23;19996;-69
2021/09/29 12:20:16;;;;;;;3.72;0.50;;;;;;;18.93;58.64;101511.81;6250543;23;20012;-69
2021/09/29 12:22:52;;;;;;;2.65;0.60;;;;;;;18.94;58.65;101502.25;6250796;23;20008;-70
2021/09/29 12:28:15;;;;;;;6.45;0.80;;;;;;;18.89;57.77;101502.41;6200235;23;20099;-69
2021/09/29 12:30:45;;;;;;;6.00;0.77;;;;;;;18.89;56.77;101504.38;6226408;23;20306;-69
2021/09/29 12:35:54;;;;;;;5.00;0.70;;;;;;;18.80;57.72;101500.69;6250906;23;20007;-69
2021/09/29 12:38:21;;;;;;;4.78;0.65;;;;;;;18.77;57.20;101504.97;6249176;23;20004;-69
2021/09/29 12:40:49;;;;;;;4.93;1.00;;;;;;;18.76;57.94;101503.34;6248965;23;20012;-69
2021/09/29 12:43:16;;;;;;;4.93;0.60;;;;;;;18.76;57.38;101500.53;6249025;23;20333;-68
2021/09/29 12:45:48;;;;;;;6.45;0.85;;;;;;;18.80;57.37;101495.06;6250439;22;20000;-69
2021/09/29 12:48:15;;;;;;;2.53;0.63;;;;;;;18.82;56.75;101498.38;6249333;22;20008;-69
2021/09/29 12:50:58;;;;;;;3.08;0.52;;;;;;;18.86;56.21;101493.75;6250454;22;20317;-70
2021/09/29 12:53:47;;;;;;;5.35;0.60;;;;;;;18.93;56.80;101506.19;6204721;23;20447;-70
2021/09/29 12:56:16;;;;;;;6.75;0.75;;;;;;;18.96;59.54;101511.16;6227986;23;20008;-69
2021/09/29 12:58:42;;;;;;;5.75;0.60;;;;;;;18.96;60.07;101516.81;6174615;23;20329;-69
2021/09/29 13:01:07;;;;;;;4.65;0.80;;;;;;;18.87;60.31;101510.31;6223965;22;20008;-69
2021/09/29 13:03:32;;;;;;;5.00;0.50;;;;;;;18.83;59.33;101512.13;6223826;23;20008;-70
2021/09/29 13:05:58;;;;;;;4.80;0.90;;;;;;;18.81;59.18;101511.63;6223566;23;20004;-69
2021/09/29 13:08:24;;;;;;;5.13;0.50;;;;;;;18.72;58.74;101511.56;6223616;23;20062;-69
2021/09/29 13:10:49;;;;;;;5.32;0.57;;;;;;;18.68;58.85;101512.53;6223253;23;20337;-69
2021/09/29 13:13:15;;;;;;;5.72;0.88;;;;;;;18.60;58.31;101518.97;6248350;23;20425;-69
2021/09/29 13:15:46;;;;;;;6.68;0.75;;;;;;;18.49;57.43;101507.97;6198776;23;20084;-69
2021/09/29 13:18:22;;;;;;;6.82;0.50;;;;;;;18.46;56.78;101507.81;6249764;22;20038;-70
2021/09/29 13:20:54;;;;;;;4.43;0.63;;;;;;;18.40;55.24;101507.13;6225482;23;20007;-69
2021/09/29 13:23:27;;;;;;;4.20;0.60;;;;;;;18.40;56.25;101509.94;6224825;23;20079;-69
2021/09/29 13:26:15;;;;;;;3.58;0.60;;;;;;;18.39;54.64;101513.09;6225192;23;20075;-69
2021/09/29 13:36:53;;;;;;;2.90;0.68;;;;;;;18.43;56.67;101520.53;6201748;23;20333;-70
2021/09/29 13:39:19;;;;;;;4.47;0.40;;;;;;;18.45;55.90;101518.22;6198467;23;20012;-70
2021/09/29 13:41:46;;;;;;;4.63;0.57;;;;;;;18.45;54.73;101515.41;6173189;23;20003;-70
2021/09/29 13:44:11;;;;;;;7.13;0.70;;;;;;;18.38;53.04;101517.84;6198198;23;20008;-69
2021/09/29 13:46:39;;;;;;;6.70;0.88;;;;;;;18.39;52.98;101518.69;6148817;23;20005;-69
2021/09/29 13:49:06;;;;;;;5.22;0.63;;;;;;;18.37;53.54;101527.44;6173615;23;20008;-71
2021/09/29 13:51:36;;;;;;;4.03;0.40;;;;;;;18.30;51.28;101524.25;6225329;23;20004;-70
2021/09/29 13:54:08;;;;;;;3.92;0.50;;;;;;;18.28;52.05;101524.59;6252344;23;20083;-70